Hiyodori — JD2366 — position and weather

sailwx.info

Track history (hours):
 
Tides and Currents Weather Stations Pressure Air Temp Water Temp Dewpoint Dewpoint Depression Visibility Wind Speed Wind Dir Waves Ship Positions

Hiyodori

Last reported at 2014-Aug-02 08:33 UTC. Time now 2014-Aug-02 08:43 UTC.
Position N 35°15' E 139°46'.

Length 88 m; draft 3.6 m.

Type: Cargo ship. MMSI: 431000132.

Date/timePositionNaut miles runAvg speedWind from/ knotsBaromVisibWave heightAir tempDewpointWater temp
2014-Aug-02 08:33N 35°15' E 139°46'1010.0
2014-Aug-02 07:33N 35°23' E 139°40'0 0.0
2014-Aug-02 06:33N 35°23' E 139°40'1 1.0
2014-Aug-02 05:33N 35°24' E 139°41'0 0.0
2014-Aug-02 04:33N 35°24' E 139°41'3 2.7
2014-Aug-02 03:33N 35°22' E 139°42'1111.2
2014-Aug-02 02:33N 35°11' E 139°47'1211.6
2014-Aug-02 01:33N 35°02' E 139°37'1312.6
2014-Aug-02 00:32N 34°54' E 139°25'226 5.9
2014-Jul-31 10:07N 33°57' E 135°00'711.5
2014-Jul-31 09:33N 34°03' E 134°60'1212.6
2014-Jul-31 08:33N 34°16' E 134°59'1211.7
2014-Jul-31 07:33N 34°26' E 135°06'1212.1
2014-Jul-31 06:33N 34°34' E 135°17'9 8.4
2014-Jul-31 05:32N 34°39' E 135°26'0 0.0
2014-Jul-31 04:25N 34°39' E 135°26'2 2.0
2014-Jul-31 03:33N 34°38' E 135°23'7 6.8
2014-Jul-31 02:34N 34°41' E 135°16'0 0.0
2014-Jul-31 01:33N 34°41' E 135°16'0 0.0
2014-Jul-31 00:33N 34°41' E 135°16'4 3.9
2014-Jul-30 23:33N 34°38' E 135°19'0 0.1
2014-Jul-30 22:33N 34°38' E 135°19'10 9.8
2014-Jul-30 21:31N 34°31' E 135°11'2010.4
2014-Jul-30 19:33N 34°12' E 134°60'1212.0
2014-Jul-30 18:32N 34°00' E 135°01'22710.3
2014-Jul-29 20:34N 34°59' E 139°27'1211.9
2014-Jul-29 19:33N 35°06' E 139°39'1111.0
2014-Jul-29 18:34N 35°15' E 139°46'1010.0
2014-Jul-29 17:34N 35°24' E 139°41'0 0.1
2014-Jul-29 16:34N 35°24' E 139°41'4 3.6
2014-Jul-29 15:34N 35°21' E 139°42'1211.6
2014-Jul-29 14:33N 35°09' E 139°45'1413.7
2014-Jul-29 13:34N 34°59' E 139°34'13 0.9
2014-Jul-28 22:28N 34°54' E 139°19'1112.2
2014-Jul-28 21:33N 35°00' E 139°30'1212.0
2014-Jul-28 20:33N 35°07' E 139°42'1010.5
2014-Jul-28 19:34N 35°17' E 139°45'7 7.4
2014-Jul-28 18:33N 35°24' E 139°41'0 0.0
2014-Jul-28 17:33N 35°24' E 139°41'0 0.0
2014-Jul-28 16:33N 35°24' E 139°41'8 8.4
2014-Jul-28 15:33N 35°17' E 139°46'1111.4
2014-Jul-28 14:33N 35°06' E 139°42'1514.9
2014-Jul-28 13:33N 34°56' E 139°28'17 0.3
2014-Jul-26 10:14N 34°50' E 139°09'710.1
2014-Jul-26 09:33N 34°54' E 139°16'10 9.3
2014-Jul-26 08:32N 34°59' E 139°26'9 9.0
2014-Jul-26 07:33N 35°04' E 139°34'1110.7
2014-Jul-26 06:33N 35°11' E 139°45'9 9.1
2014-Jul-26 05:33N 35°20' E 139°42'5 4.6
2014-Jul-26 04:33N 35°24' E 139°41'0 0.0
2014-Jul-26 03:33N 35°24' E 139°41'0 0.0
2014-Jul-26 02:33N 35°24' E 139°41'0 0.0
2014-Jul-26 01:33N 35°24' E 139°41'3 3.1
2014-Jul-26 00:33N 35°21' E 139°42'1110.5
2014-Jul-25 23:33N 35°11' E 139°47'1211.8
2014-Jul-25 22:33N 35°01' E 139°40'1312.9
2014-Jul-25 21:33N 34°54' E 139°27'226 6.3
2014-Jul-24 09:32N 34°01' E 135°00'1212.3
2014-Jul-24 08:32N 34°14' E 134°59'1111.2
2014-Jul-24 07:33N 34°24' E 135°03'1312.6
2014-Jul-24 06:32N 34°33' E 135°15'1110.9
2014-Jul-24 05:33N 34°39' E 135°26'0 0.1
2014-Jul-24 04:31N 34°39' E 135°26'0 0.0
2014-Jul-24 02:24N 34°39' E 135°26'6 7.4
2014-Jul-24 01:33N 34°37' E 135°18'4 3.9
2014-Jul-24 00:33N 34°41' E 135°16'2 1.7
2014-Jul-23 23:33N 34°40' E 135°14'0 0.4
2014-Jul-23 22:33N 34°40' E 135°14'0 0.0
2014-Jul-23 21:33N 34°40' E 135°14'0 0.0
2014-Jul-23 20:33N 34°40' E 135°14'0 0.0
2014-Jul-23 19:33N 34°40' E 135°14'0 0.0
2014-Jul-23 18:33N 34°40' E 135°14'0 0.0
2014-Jul-23 17:33N 34°40' E 135°14'0 0.0
2014-Jul-23 16:33N 34°40' E 135°14'0 0.0
2014-Jul-23 15:33N 34°40' E 135°14'0 0.0
2014-Jul-23 14:33N 34°40' E 135°14'0 0.0
2014-Jul-23 13:33N 34°40' E 135°14'0 0.0
2014-Jul-23 12:33N 34°40' E 135°14'0 0.0
2014-Jul-23 11:33N 34°40' E 135°14'0 0.0
2014-Jul-23 10:33N 34°40' E 135°14'8 7.8
2014-Jul-23 09:33N 34°32' E 135°12'  
Track history (hours):
 
Tides and Currents Weather Stations Pressure Air Temp Water Temp Dewpoint Dewpoint Depression Visibility Wind Speed Wind Dir Waves Ship Positions

Hiyodori

Last reported at 2014-Aug-02 08:33 UTC. Time now 2014-Aug-02 08:43 UTC.
Position N 35°15' E 139°46'.

Length 88 m; draft 3.6 m.

Type: Cargo ship. MMSI: 431000132.

Date/timePositionNaut miles runAvg speedWind from/ knotsBaromVisibWave heightAir tempDewpointWater temp
2014-Aug-02 08:33N 35°15' E 139°46'1010.0
2014-Aug-02 07:33N 35°23' E 139°40'0 0.0
2014-Aug-02 06:33N 35°23' E 139°40'1 1.0
2014-Aug-02 05:33N 35°24' E 139°41'0 0.0
2014-Aug-02 04:33N 35°24' E 139°41'3 2.7
2014-Aug-02 03:33N 35°22' E 139°42'1111.2
2014-Aug-02 02:33N 35°11' E 139°47'1211.6
2014-Aug-02 01:33N 35°02' E 139°37'1312.6
2014-Aug-02 00:32N 34°54' E 139°25'226 5.9
2014-Jul-31 10:07N 33°57' E 135°00'711.5
2014-Jul-31 09:33N 34°03' E 134°60'1212.6
2014-Jul-31 08:33N 34°16' E 134°59'1211.7
2014-Jul-31 07:33N 34°26' E 135°06'1212.1
2014-Jul-31 06:33N 34°34' E 135°17'9 8.4
2014-Jul-31 05:32N 34°39' E 135°26'0 0.0
2014-Jul-31 04:25N 34°39' E 135°26'2 2.0
2014-Jul-31 03:33N 34°38' E 135°23'7 6.8
2014-Jul-31 02:34N 34°41' E 135°16'0 0.0
2014-Jul-31 01:33N 34°41' E 135°16'0 0.0
2014-Jul-31 00:33N 34°41' E 135°16'4 3.9
2014-Jul-30 23:33N 34°38' E 135°19'0 0.1
2014-Jul-30 22:33N 34°38' E 135°19'10 9.8
2014-Jul-30 21:31N 34°31' E 135°11'2010.4
2014-Jul-30 19:33N 34°12' E 134°60'1212.0
2014-Jul-30 18:32N 34°00' E 135°01'22710.3
2014-Jul-29 20:34N 34°59' E 139°27'1211.9
2014-Jul-29 19:33N 35°06' E 139°39'1111.0
2014-Jul-29 18:34N 35°15' E 139°46'1010.0
2014-Jul-29 17:34N 35°24' E 139°41'0 0.1
2014-Jul-29 16:34N 35°24' E 139°41'4 3.6
2014-Jul-29 15:34N 35°21' E 139°42'1211.6
2014-Jul-29 14:33N 35°09' E 139°45'1413.7
2014-Jul-29 13:34N 34°59' E 139°34'13 0.9
2014-Jul-28 22:28N 34°54' E 139°19'1112.2
2014-Jul-28 21:33N 35°00' E 139°30'1212.0
2014-Jul-28 20:33N 35°07' E 139°42'1010.5
2014-Jul-28 19:34N 35°17' E 139°45'7 7.4
2014-Jul-28 18:33N 35°24' E 139°41'0 0.0
2014-Jul-28 17:33N 35°24' E 139°41'0 0.0
2014-Jul-28 16:33N 35°24' E 139°41'8 8.4
2014-Jul-28 15:33N 35°17' E 139°46'1111.4
2014-Jul-28 14:33N 35°06' E 139°42'1514.9
2014-Jul-28 13:33N 34°56' E 139°28'17 0.3
2014-Jul-26 10:14N 34°50' E 139°09'710.1
2014-Jul-26 09:33N 34°54' E 139°16'10 9.3
2014-Jul-26 08:32N 34°59' E 139°26'9 9.0
2014-Jul-26 07:33N 35°04' E 139°34'1110.7
2014-Jul-26 06:33N 35°11' E 139°45'9 9.1
2014-Jul-26 05:33N 35°20' E 139°42'5 4.6
2014-Jul-26 04:33N 35°24' E 139°41'0 0.0
2014-Jul-26 03:33N 35°24' E 139°41'0 0.0
2014-Jul-26 02:33N 35°24' E 139°41'0 0.0
2014-Jul-26 01:33N 35°24' E 139°41'3 3.1
2014-Jul-26 00:33N 35°21' E 139°42'1110.5
2014-Jul-25 23:33N 35°11' E 139°47'1211.8
2014-Jul-25 22:33N 35°01' E 139°40'1312.9
2014-Jul-25 21:33N 34°54' E 139°27'226 6.3
2014-Jul-24 09:32N 34°01' E 135°00'1212.3
2014-Jul-24 08:32N 34°14' E 134°59'1111.2
2014-Jul-24 07:33N 34°24' E 135°03'1312.6
2014-Jul-24 06:32N 34°33' E 135°15'1110.9
2014-Jul-24 05:33N 34°39' E 135°26'0 0.1
2014-Jul-24 04:31N 34°39' E 135°26'0 0.0
2014-Jul-24 02:24N 34°39' E 135°26'6 7.4
2014-Jul-24 01:33N 34°37' E 135°18'4 3.9
2014-Jul-24 00:33N 34°41' E 135°16'2 1.7
2014-Jul-23 23:33N 34°40' E 135°14'0 0.4
2014-Jul-23 22:33N 34°40' E 135°14'0 0.0
2014-Jul-23 21:33N 34°40' E 135°14'0 0.0
2014-Jul-23 20:33N 34°40' E 135°14'0 0.0
2014-Jul-23 19:33N 34°40' E 135°14'0 0.0
2014-Jul-23 18:33N 34°40' E 135°14'0 0.0
2014-Jul-23 17:33N 34°40' E 135°14'0 0.0
2014-Jul-23 16:33N 34°40' E 135°14'0 0.0
2014-Jul-23 15:33N 34°40' E 135°14'0 0.0
2014-Jul-23 14:33N 34°40' E 135°14'0 0.0
2014-Jul-23 13:33N 34°40' E 135°14'0 0.0
2014-Jul-23 12:33N 34°40' E 135°14'0 0.0
2014-Jul-23 11:33N 34°40' E 135°14'0 0.0
2014-Jul-23 10:33N 34°40' E 135°14'8 7.8
2014-Jul-23 09:33N 34°32' E 135°12'  

Dump ship's entire track history